Terminal Aerodrome Forecast
Issued by NWS Sterling, VA

Current Version | Previous Version | Text Only | Print | Product List | Glossary Off
Versions: 1 2 3 4 5 6 7 8 9 10 11 12 13 14 15 16 17 18 19 20 21 22 23 24 25 26 27 28

000
FTUS41 KLWX 271726
TAFIAD
TAF
KIAD 271726Z 2718/2824 13010KT 2SM SHRA VCTS BKN008 OVC015CB
     FM271830 14010KT 3SM -SHRA OVC012
     FM272200 17011KT 2SM +TSRA OVC008CB
     FM280100 19008KT 2SM SHRA BR OVC010
     FM280600 28006KT 5SM -SHRA BKN025
     FM281000 26011KT P6SM SCT080
     FM281600 27017G26KT P6SM BKN050=

USA.gov is the U.S. government's official web portal to all federal, state and local government web resources and services.